sensor_id;sensor_type;location;lat;lon;timestamp;temperature;humidity
8910;DHT22;4490;49.072;8.804;2024-02-15T00:02:13;12.10;99.90
8910;DHT22;4490;49.072;8.804;2024-02-15T00:04:38;12.00;99.90
8910;DHT22;4490;49.072;8.804;2024-02-15T00:07:04;12.00;99.90
8910;DHT22;4490;49.072;8.804;2024-02-15T00:09:30;12.00;99.90
8910;DHT22;4490;49.072;8.804;2024-02-15T00:11:56;12.00;99.90
8910;DHT22;4490;49.072;8.804;2024-02-15T00:14:22;12.00;99.90
8910;DHT22;4490;49.072;8.804;2024-02-15T00:16:48;11.90;99.90
8910;DHT22;4490;49.072;8.804;2024-02-15T00:19:13;11.90;99.90
8910;DHT22;4490;49.072;8.804;2024-02-15T00:21:45;11.90;99.90
8910;DHT22;4490;49.072;8.804;2024-02-15T00:24:11;11.90;99.90
8910;DHT22;4490;49.072;8.804;2024-02-15T00:26:37;11.90;99.90
8910;DHT22;4490;49.072;8.804;2024-02-15T00:29:03;11.90;99.90
8910;DHT22;4490;49.072;8.804;2024-02-15T00:31:29;11.80;99.90
8910;DHT22;4490;49.072;8.804;2024-02-15T00:33:55;11.80;99.90
8910;DHT22;4490;49.072;8.804;2024-02-15T00:36:20;11.70;99.90
8910;DHT22;4490;49.072;8.804;2024-02-15T00:38:46;11.70;99.90
8910;DHT22;4490;49.072;8.804;2024-02-15T00:41:12;11.60;99.90
8910;DHT22;4490;49.072;8.804;2024-02-15T00:43:38;11.50;99.90
8910;DHT22;4490;49.072;8.804;2024-02-15T00:46:03;11.40;99.90
8910;DHT22;4490;49.072;8.804;2024-02-15T00:48:29;11.40;99.90
8910;DHT22;4490;49.072;8.804;2024-02-15T00:50:56;11.30;99.90
8910;DHT22;4490;49.072;8.804;2024-02-15T00:53:22;11.20;99.90
8910;DHT22;4490;49.072;8.804;2024-02-15T00:55:47;11.20;99.90
8910;DHT22;4490;49.072;8.804;2024-02-15T00:58:13;11.10;99.90
8910;DHT22;4490;49.072;8.804;2024-02-15T01:00:38;11.20;99.90
8910;DHT22;4490;49.072;8.804;2024-02-15T01:03:04;11.10;99.90
8910;DHT22;4490;49.072;8.804;2024-02-15T01:05:30;11.10;99.90
8910;DHT22;4490;49.072;8.804;2024-02-15T01:07:56;11.10;99.90
8910;DHT22;4490;49.072;8.804;2024-02-15T01:10:22;11.10;99.90
8910;DHT22;4490;49.072;8.804;2024-02-15T01:12:50;11.00;99.90
8910;DHT22;4490;49.072;8.804;2024-02-15T01:15:15;11.00;99.90
8910;DHT22;4490;49.072;8.804;2024-02-15T01:17:44;10.90;99.90
8910;DHT22;4490;49.072;8.804;2024-02-15T01:20:10;10.90;99.90
8910;DHT22;4490;49.072;8.804;2024-02-15T01:22:36;10.90;99.90
8910;DHT22;4490;49.072;8.804;2024-02-15T01:25:02;10.80;99.90
8910;DHT22;4490;49.072;8.804;2024-02-15T01:27:28;10.80;99.90
8910;DHT22;4490;49.072;8.804;2024-02-15T01:29:56;10.70;99.90
8910;DHT22;4490;49.072;8.804;2024-02-15T01:32:22;10.70;99.90
8910;DHT22;4490;49.072;8.804;2024-02-15T01:34:47;10.60;99.90
8910;DHT22;4490;49.072;8.804;2024-02-15T01:37:13;10.60;99.90
8910;DHT22;4490;49.072;8.804;2024-02-15T01:39:39;10.60;99.90
8910;DHT22;4490;49.072;8.804;2024-02-15T01:42:05;10.60;99.90
8910;DHT22;4490;49.072;8.804;2024-02-15T01:44:31;10.60;99.90
8910;DHT22;4490;49.072;8.804;2024-02-15T01:46:58;10.60;99.90
8910;DHT22;4490;49.072;8.804;2024-02-15T01:49:25;10.60;99.90
8910;DHT22;4490;49.072;8.804;2024-02-15T01:51:54;10.70;99.90
8910;DHT22;4490;49.072;8.804;2024-02-15T01:54:20;10.60;99.90
8910;DHT22;4490;49.072;8.804;2024-02-15T01:56:46;10.60;99.90
8910;DHT22;4490;49.072;8.804;2024-02-15T01:59:15;10.60;99.90
8910;DHT22;4490;49.072;8.804;2024-02-15T02:01:41;10.60;99.90
8910;DHT22;4490;49.072;8.804;2024-02-15T02:04:07;10.60;99.90
8910;DHT22;4490;49.072;8.804;2024-02-15T02:06:33;10.60;99.90
8910;DHT22;4490;49.072;8.804;2024-02-15T02:08:59;10.60;99.90
8910;DHT22;4490;49.072;8.804;2024-02-15T02:11:25;10.60;99.90
8910;DHT22;4490;49.072;8.804;2024-02-15T02:13:51;10.60;99.90
8910;DHT22;4490;49.072;8.804;2024-02-15T02:16:29;10.60;99.90
8910;DHT22;4490;49.072;8.804;2024-02-15T02:18:57;10.70;99.90
8910;DHT22;4490;49.072;8.804;2024-02-15T02:21:26;10.70;99.90
8910;DHT22;4490;49.072;8.804;2024-02-15T02:23:55;10.70;99.90
8910;DHT22;4490;49.072;8.804;2024-02-15T02:26:22;10.70;99.90
8910;DHT22;4490;49.072;8.804;2024-02-15T02:28:49;10.70;99.90
8910;DHT22;4490;49.072;8.804;2024-02-15T02:31:14;10.70;99.90
8910;DHT22;4490;49.072;8.804;2024-02-15T02:33:41;10.70;99.90
8910;DHT22;4490;49.072;8.804;2024-02-15T02:36:07;10.80;99.90
8910;DHT22;4490;49.072;8.804;2024-02-15T02:38:35;10.80;99.90
8910;DHT22;4490;49.072;8.804;2024-02-15T02:41:04;10.80;99.90
8910;DHT22;4490;49.072;8.804;2024-02-15T02:43:29;10.80;99.90
8910;DHT22;4490;49.072;8.804;2024-02-15T02:45:55;10.80;99.90
8910;DHT22;4490;49.072;8.804;2024-02-15T02:48:21;10.90;99.90
8910;DHT22;4490;49.072;8.804;2024-02-15T02:50:50;10.90;99.90
8910;DHT22;4490;49.072;8.804;2024-02-15T02:53:15;10.90;99.90
8910;DHT22;4490;49.072;8.804;2024-02-15T02:55:41;10.90;99.90
8910;DHT22;4490;49.072;8.804;2024-02-15T02:58:07;10.90;99.90
8910;DHT22;4490;49.072;8.804;2024-02-15T03:00:33;11.00;99.90
8910;DHT22;4490;49.072;8.804;2024-02-15T03:03:00;11.00;99.90
8910;DHT22;4490;49.072;8.804;2024-02-15T03:05:26;11.00;99.90
8910;DHT22;4490;49.072;8.804;2024-02-15T03:07:52;11.10;99.90
8910;DHT22;4490;49.072;8.804;2024-02-15T03:10:18;11.20;99.90
8910;DHT22;4490;49.072;8.804;2024-02-15T03:12:44;11.20;99.90
8910;DHT22;4490;49.072;8.804;2024-02-15T03:15:13;11.20;99.90
8910;DHT22;4490;49.072;8.804;2024-02-15T03:17:43;11.20;99.90
8910;DHT22;4490;49.072;8.804;2024-02-15T03:20:11;11.20;99.90
8910;DHT22;4490;49.072;8.804;2024-02-15T03:22:55;11.20;99.90
8910;DHT22;4490;49.072;8.804;2024-02-15T03:25:22;11.30;99.90
8910;DHT22;4490;49.072;8.804;2024-02-15T03:27:51;11.30;99.90
8910;DHT22;4490;49.072;8.804;2024-02-15T03:30:26;11.30;99.90
8910;DHT22;4490;49.072;8.804;2024-02-15T03:32:53;11.30;99.90
8910;DHT22;4490;49.072;8.804;2024-02-15T03:35:20;11.40;99.90
8910;DHT22;4490;49.072;8.804;2024-02-15T03:37:48;11.40;99.90
8910;DHT22;4490;49.072;8.804;2024-02-15T03:40:16;11.40;99.90
8910;DHT22;4490;49.072;8.804;2024-02-15T03:42:41;11.50;99.90
8910;DHT22;4490;49.072;8.804;2024-02-15T03:45:07;11.50;99.90
8910;DHT22;4490;49.072;8.804;2024-02-15T03:47:34;11.50;99.90
8910;DHT22;4490;49.072;8.804;2024-02-15T03:50:04;11.60;99.90
8910;DHT22;4490;49.072;8.804;2024-02-15T03:52:30;11.60;99.90
8910;DHT22;4490;49.072;8.804;2024-02-15T03:54:57;11.60;99.90
8910;DHT22;4490;49.072;8.804;2024-02-15T03:57:23;11.60;99.90
8910;DHT22;4490;49.072;8.804;2024-02-15T03:59:49;11.60;99.90
8910;DHT22;4490;49.072;8.804;2024-02-15T04:02:25;11.60;99.90
8910;DHT22;4490;49.072;8.804;2024-02-15T04:04:54;11.60;99.90
8910;DHT22;4490;49.072;8.804;2024-02-15T04:07:21;11.60;99.90
8910;DHT22;4490;49.072;8.804;2024-02-15T04:09:47;11.60;99.90
8910;DHT22;4490;49.072;8.804;2024-02-15T04:12:13;11.60;99.90
8910;DHT22;4490;49.072;8.804;2024-02-15T04:14:40;11.50;99.90
8910;DHT22;4490;49.072;8.804;2024-02-15T04:17:07;11.50;99.90
8910;DHT22;4490;49.072;8.804;2024-02-15T04:19:33;11.50;99.90
8910;DHT22;4490;49.072;8.804;2024-02-15T04:21:59;11.50;99.90
8910;DHT22;4490;49.072;8.804;2024-02-15T04:24:26;11.50;99.90
8910;DHT22;4490;49.072;8.804;2024-02-15T04:26:52;11.50;99.90
8910;DHT22;4490;49.072;8.804;2024-02-15T04:29:18;11.50;99.90
8910;DHT22;4490;49.072;8.804;2024-02-15T04:31:46;11.50;99.90
8910;DHT22;4490;49.072;8.804;2024-02-15T04:34:17;11.50;99.90
8910;DHT22;4490;49.072;8.804;2024-02-15T04:36:47;11.50;99.90
8910;DHT22;4490;49.072;8.804;2024-02-15T04:39:16;11.60;99.90
8910;DHT22;4490;49.072;8.804;2024-02-15T04:41:52;11.60;99.90
8910;DHT22;4490;49.072;8.804;2024-02-15T04:44:19;11.60;99.90
8910;DHT22;4490;49.072;8.804;2024-02-15T04:46:52;11.50;99.90
8910;DHT22;4490;49.072;8.804;2024-02-15T04:49:18;11.50;99.90
8910;DHT22;4490;49.072;8.804;2024-02-15T04:51:44;11.50;99.90
8910;DHT22;4490;49.072;8.804;2024-02-15T04:54:10;11.60;99.90
8910;DHT22;4490;49.072;8.804;2024-02-15T04:56:40;11.50;99.90
8910;DHT22;4490;49.072;8.804;2024-02-15T04:59:14;11.50;99.90
8910;DHT22;4490;49.072;8.804;2024-02-15T05:01:43;11.60;99.90
8910;DHT22;4490;49.072;8.804;2024-02-15T05:04:09;11.50;99.90
8910;DHT22;4490;49.072;8.804;2024-02-15T05:06:35;11.50;99.90
8910;DHT22;4490;49.072;8.804;2024-02-15T05:09:04;11.50;99.90
8910;DHT22;4490;49.072;8.804;2024-02-15T05:11:33;11.50;99.90
8910;DHT22;4490;49.072;8.804;2024-02-15T05:14:02;11.50;99.90
8910;DHT22;4490;49.072;8.804;2024-02-15T05:16:34;11.50;99.90
8910;DHT22;4490;49.072;8.804;2024-02-15T05:19:00;11.50;99.90
8910;DHT22;4490;49.072;8.804;2024-02-15T05:21:26;11.50;99.90
8910;DHT22;4490;49.072;8.804;2024-02-15T05:23:52;11.50;99.90
8910;DHT22;4490;49.072;8.804;2024-02-15T05:26:18;11.50;99.90
8910;DHT22;4490;49.072;8.804;2024-02-15T05:28:52;11.50;99.90
8910;DHT22;4490;49.072;8.804;2024-02-15T05:31:19;11.50;99.90
8910;DHT22;4490;49.072;8.804;2024-02-15T05:33:49;11.50;99.90
8910;DHT22;4490;49.072;8.804;2024-02-15T05:36:16;11.50;99.90
8910;DHT22;4490;49.072;8.804;2024-02-15T05:38:49;11.50;99.90
8910;DHT22;4490;49.072;8.804;2024-02-15T05:41:15;11.50;99.90
8910;DHT22;4490;49.072;8.804;2024-02-15T05:43:41;11.50;99.90
8910;DHT22;4490;49.072;8.804;2024-02-15T05:46:08;11.50;99.90
8910;DHT22;4490;49.072;8.804;2024-02-15T05:48:34;11.50;99.90
8910;DHT22;4490;49.072;8.804;2024-02-15T05:51:04;11.50;99.90
8910;DHT22;4490;49.072;8.804;2024-02-15T05:53:30;11.50;99.90
8910;DHT22;4490;49.072;8.804;2024-02-15T05:55:56;11.50;99.90
8910;DHT22;4490;49.072;8.804;2024-02-15T05:58:26;11.50;99.90
8910;DHT22;4490;49.072;8.804;2024-02-15T06:00:51;11.50;99.90
8910;DHT22;4490;49.072;8.804;2024-02-15T06:03:18;11.40;99.90
8910;DHT22;4490;49.072;8.804;2024-02-15T06:05:44;11.40;99.90
8910;DHT22;4490;49.072;8.804;2024-02-15T06:08:10;11.40;99.90
8910;DHT22;4490;49.072;8.804;2024-02-15T06:10:39;11.40;99.90
8910;DHT22;4490;49.072;8.804;2024-02-15T06:13:08;11.40;99.90
8910;DHT22;4490;49.072;8.804;2024-02-15T06:15:35;11.40;99.90
8910;DHT22;4490;49.072;8.804;2024-02-15T06:18:01;11.40;99.90
8910;DHT22;4490;49.072;8.804;2024-02-15T06:20:29;11.40;99.90
8910;DHT22;4490;49.072;8.804;2024-02-15T06:22:56;11.40;99.90
8910;DHT22;4490;49.072;8.804;2024-02-15T06:25:22;11.40;99.90
8910;DHT22;4490;49.072;8.804;2024-02-15T06:27:48;11.40;99.90
8910;DHT22;4490;49.072;8.804;2024-02-15T06:30:16;11.40;99.90
8910;DHT22;4490;49.072;8.804;2024-02-15T06:33:00;11.40;99.90
8910;DHT22;4490;49.072;8.804;2024-02-15T06:35:44;11.40;99.90
8910;DHT22;4490;49.072;8.804;2024-02-15T06:38:28;11.40;99.90
8910;DHT22;4490;49.072;8.804;2024-02-15T06:41:13;11.40;99.90
8910;DHT22;4490;49.072;8.804;2024-02-15T06:43:39;11.40;99.90
8910;DHT22;4490;49.072;8.804;2024-02-15T06:46:09;11.40;99.90
8910;DHT22;4490;49.072;8.804;2024-02-15T06:48:36;11.50;99.90
8910;DHT22;4490;49.072;8.804;2024-02-15T06:51:02;11.50;99.90
8910;DHT22;4490;49.072;8.804;2024-02-15T06:53:29;11.50;99.90
8910;DHT22;4490;49.072;8.804;2024-02-15T06:55:55;11.50;99.90
8910;DHT22;4490;49.072;8.804;2024-02-15T06:58:22;11.60;99.90
8910;DHT22;4490;49.072;8.804;2024-02-15T07:00:48;11.60;99.90
8910;DHT22;4490;49.072;8.804;2024-02-15T07:03:15;11.60;99.90
8910;DHT22;4490;49.072;8.804;2024-02-15T07:05:42;11.60;99.90
8910;DHT22;4490;49.072;8.804;2024-02-15T07:08:08;11.70;99.90
8910;DHT22;4490;49.072;8.804;2024-02-15T07:10:37;11.70;99.90
8910;DHT22;4490;49.072;8.804;2024-02-15T07:13:04;11.70;99.90
8910;DHT22;4490;49.072;8.804;2024-02-15T07:15:31;11.80;99.90
8910;DHT22;4490;49.072;8.804;2024-02-15T07:17:58;11.80;99.90
8910;DHT22;4490;49.072;8.804;2024-02-15T07:20:24;11.90;99.90
8910;DHT22;4490;49.072;8.804;2024-02-15T07:22:51;11.90;99.90
8910;DHT22;4490;49.072;8.804;2024-02-15T07:25:16;12.00;99.90
8910;DHT22;4490;49.072;8.804;2024-02-15T07:27:43;12.00;99.90
8910;DHT22;4490;49.072;8.804;2024-02-15T07:30:09;12.00;99.90
8910;DHT22;4490;49.072;8.804;2024-02-15T07:32:35;12.10;99.90
8910;DHT22;4490;49.072;8.804;2024-02-15T07:35:01;12.10;99.90
8910;DHT22;4490;49.072;8.804;2024-02-15T07:37:27;12.20;99.90
8910;DHT22;4490;49.072;8.804;2024-02-15T07:39:54;12.30;99.90
8910;DHT22;4490;49.072;8.804;2024-02-15T07:42:20;12.30;99.90
8910;DHT22;4490;49.072;8.804;2024-02-15T07:44:45;12.40;99.90
8910;DHT22;4490;49.072;8.804;2024-02-15T07:47:11;12.40;99.90
8910;DHT22;4490;49.072;8.804;2024-02-15T07:49:37;12.40;99.90
8910;DHT22;4490;49.072;8.804;2024-02-15T07:52:03;12.50;99.90
8910;DHT22;4490;49.072;8.804;2024-02-15T07:54:30;12.50;99.90
8910;DHT22;4490;49.072;8.804;2024-02-15T07:56:56;12.60;99.90
8910;DHT22;4490;49.072;8.804;2024-02-15T07:59:23;12.60;99.90
8910;DHT22;4490;49.072;8.804;2024-02-15T08:01:49;12.60;99.90
8910;DHT22;4490;49.072;8.804;2024-02-15T08:04:19;12.60;99.90
8910;DHT22;4490;49.072;8.804;2024-02-15T08:06:46;12.70;99.90
8910;DHT22;4490;49.072;8.804;2024-02-15T08:09:15;12.70;99.90
8910;DHT22;4490;49.072;8.804;2024-02-15T08:11:43;12.80;99.90
8910;DHT22;4490;49.072;8.804;2024-02-15T08:14:09;12.70;99.90
8910;DHT22;4490;49.072;8.804;2024-02-15T08:16:37;12.80;99.90
8910;DHT22;4490;49.072;8.804;2024-02-15T08:19:03;12.80;99.90
8910;DHT22;4490;49.072;8.804;2024-02-15T08:21:31;12.80;99.90
8910;DHT22;4490;49.072;8.804;2024-02-15T08:24:05;12.80;99.90
8910;DHT22;4490;49.072;8.804;2024-02-15T08:26:37;12.90;99.90
8910;DHT22;4490;49.072;8.804;2024-02-15T08:29:04;12.90;99.90
8910;DHT22;4490;49.072;8.804;2024-02-15T08:31:30;12.90;99.90
8910;DHT22;4490;49.072;8.804;2024-02-15T08:34:04;13.00;99.90
8910;DHT22;4490;49.072;8.804;2024-02-15T08:36:36;13.00;99.90
8910;DHT22;4490;49.072;8.804;2024-02-15T08:39:01;13.00;99.90
8910;DHT22;4490;49.072;8.804;2024-02-15T08:41:29;13.10;99.90
8910;DHT22;4490;49.072;8.804;2024-02-15T08:43:54;13.10;99.90
8910;DHT22;4490;49.072;8.804;2024-02-15T08:46:23;13.10;99.90
8910;DHT22;4490;49.072;8.804;2024-02-15T08:48:50;13.10;99.90
8910;DHT22;4490;49.072;8.804;2024-02-15T08:51:17;13.20;99.90
8910;DHT22;4490;49.072;8.804;2024-02-15T08:53:43;13.20;99.90
8910;DHT22;4490;49.072;8.804;2024-02-15T08:56:09;13.20;99.90
8910;DHT22;4490;49.072;8.804;2024-02-15T08:58:35;13.30;99.90
8910;DHT22;4490;49.072;8.804;2024-02-15T09:01:01;13.30;99.90
8910;DHT22;4490;49.072;8.804;2024-02-15T09:03:28;13.40;99.90
8910;DHT22;4490;49.072;8.804;2024-02-15T09:05:54;13.50;99.90
8910;DHT22;4490;49.072;8.804;2024-02-15T09:08:19;13.50;99.90
8910;DHT22;4490;49.072;8.804;2024-02-15T09:10:47;13.60;99.90
8910;DHT22;4490;49.072;8.804;2024-02-15T09:13:13;13.70;99.90
8910;DHT22;4490;49.072;8.804;2024-02-15T09:15:40;13.80;99.90
8910;DHT22;4490;49.072;8.804;2024-02-15T09:18:07;13.90;99.90
8910;DHT22;4490;49.072;8.804;2024-02-15T09:20:35;14.00;99.90
8910;DHT22;4490;49.072;8.804;2024-02-15T09:23:03;14.10;99.90
8910;DHT22;4490;49.072;8.804;2024-02-15T09:25:37;14.20;99.90
8910;DHT22;4490;49.072;8.804;2024-02-15T09:28:03;14.20;99.90
8910;DHT22;4490;49.072;8.804;2024-02-15T09:30:29;14.30;99.90
8910;DHT22;4490;49.072;8.804;2024-02-15T09:32:57;14.30;99.90
8910;DHT22;4490;49.072;8.804;2024-02-15T09:35:23;14.30;99.80
8910;DHT22;4490;49.072;8.804;2024-02-15T09:37:49;14.40;99.80
8910;DHT22;4490;49.072;8.804;2024-02-15T09:40:15;14.40;99.20
8910;DHT22;4490;49.072;8.804;2024-02-15T09:42:42;14.50;98.80
8910;DHT22;4490;49.072;8.804;2024-02-15T09:45:11;14.50;98.40
8910;DHT22;4490;49.072;8.804;2024-02-15T09:47:40;14.60;98.20
8910;DHT22;4490;49.072;8.804;2024-02-15T09:50:10;14.70;98.10
8910;DHT22;4490;49.072;8.804;2024-02-15T09:52:38;14.70;97.20
8910;DHT22;4490;49.072;8.804;2024-02-15T09:55:05;14.80;97.20
8910;DHT22;4490;49.072;8.804;2024-02-15T09:57:31;14.90;96.70
8910;DHT22;4490;49.072;8.804;2024-02-15T09:59:58;15.00;95.80
8910;DHT22;4490;49.072;8.804;2024-02-15T10:02:26;15.00;95.30
8910;DHT22;4490;49.072;8.804;2024-02-15T10:04:53;15.10;95.40
8910;DHT22;4490;49.072;8.804;2024-02-15T10:07:25;15.10;95.00
8910;DHT22;4490;49.072;8.804;2024-02-15T10:09:52;15.20;94.50
8910;DHT22;4490;49.072;8.804;2024-02-15T10:12:18;15.30;93.90
8910;DHT22;4490;49.072;8.804;2024-02-15T10:14:50;15.30;93.70
8910;DHT22;4490;49.072;8.804;2024-02-15T10:17:18;15.40;93.40
8910;DHT22;4490;49.072;8.804;2024-02-15T10:19:44;15.40;93.50
8910;DHT22;4490;49.072;8.804;2024-02-15T10:22:12;15.50;92.90
8910;DHT22;4490;49.072;8.804;2024-02-15T10:24:40;15.60;93.30
8910;DHT22;4490;49.072;8.804;2024-02-15T10:27:06;15.60;92.60
8910;DHT22;4490;49.072;8.804;2024-02-15T10:29:33;15.70;92.60
8910;DHT22;4490;49.072;8.804;2024-02-15T10:32:01;15.70;92.10
8910;DHT22;4490;49.072;8.804;2024-02-15T10:34:28;15.80;91.90
8910;DHT22;4490;49.072;8.804;2024-02-15T10:36:54;15.90;91.40
8910;DHT22;4490;49.072;8.804;2024-02-15T10:39:23;15.90;91.10
8910;DHT22;4490;49.072;8.804;2024-02-15T10:41:50;16.00;90.90
8910;DHT22;4490;49.072;8.804;2024-02-15T10:44:17;16.00;90.90
8910;DHT22;4490;49.072;8.804;2024-02-15T10:46:51;16.10;90.90
8910;DHT22;4490;49.072;8.804;2024-02-15T10:49:24;16.10;90.90
8910;DHT22;4490;49.072;8.804;2024-02-15T10:51:57;16.20;90.20
8910;DHT22;4490;49.072;8.804;2024-02-15T10:54:56;16.30;90.20
8910;DHT22;4490;49.072;8.804;2024-02-15T10:57:31;16.30;89.20
8910;DHT22;4490;49.072;8.804;2024-02-15T10:59:58;16.40;89.70
8910;DHT22;4490;49.072;8.804;2024-02-15T11:02:37;16.40;88.60
8910;DHT22;4490;49.072;8.804;2024-02-15T11:05:05;16.50;89.10
8910;DHT22;4490;49.072;8.804;2024-02-15T11:07:34;16.50;88.70
8910;DHT22;4490;49.072;8.804;2024-02-15T11:10:01;16.60;88.50
8910;DHT22;4490;49.072;8.804;2024-02-15T11:12:28;16.60;88.80
8910;DHT22;4490;49.072;8.804;2024-02-15T11:14:54;16.70;88.50
8910;DHT22;4490;49.072;8.804;2024-02-15T11:20:20;16.80;87.50
8910;DHT22;4490;49.072;8.804;2024-02-15T11:22:56;16.80;86.80
8910;DHT22;4490;49.072;8.804;2024-02-15T11:25:32;16.90;87.00
8910;DHT22;4490;49.072;8.804;2024-02-15T11:30:48;17.00;86.40
8910;DHT22;4490;49.072;8.804;2024-02-15T11:36:09;17.10;84.30
8910;DHT22;4490;49.072;8.804;2024-02-15T11:38:41;17.10;82.60
8910;DHT22;4490;49.072;8.804;2024-02-15T11:41:09;17.10;84.20
8910;DHT22;4490;49.072;8.804;2024-02-15T11:43:52;17.20;84.20
8910;DHT22;4490;49.072;8.804;2024-02-15T11:46:23;17.30;83.90
8910;DHT22;4490;49.072;8.804;2024-02-15T11:48:55;17.30;83.80
8910;DHT22;4490;49.072;8.804;2024-02-15T11:51:32;17.40;83.20
8910;DHT22;4490;49.072;8.804;2024-02-15T11:54:06;17.50;82.20
8910;DHT22;4490;49.072;8.804;2024-02-15T11:56:54;17.50;83.00
8910;DHT22;4490;49.072;8.804;2024-02-15T11:59:44;17.60;83.00
8910;DHT22;4490;49.072;8.804;2024-02-15T12:02:37;17.70;82.70
8910;DHT22;4490;49.072;8.804;2024-02-15T12:05:21;17.70;83.80
8910;DHT22;4490;49.072;8.804;2024-02-15T12:08:05;17.80;84.20
8910;DHT22;4490;49.072;8.804;2024-02-15T12:10:59;17.90;82.70
8910;DHT22;4490;49.072;8.804;2024-02-15T12:13:43;18.00;81.80
8910;DHT22;4490;49.072;8.804;2024-02-15T12:16:33;17.90;81.40
8910;DHT22;4490;49.072;8.804;2024-02-15T12:19:17;17.90;80.70
8910;DHT22;4490;49.072;8.804;2024-02-15T12:21:43;18.00;81.80
8910;DHT22;4490;49.072;8.804;2024-02-15T12:24:08;18.00;81.80
8910;DHT22;4490;49.072;8.804;2024-02-15T12:26:34;17.90;81.10
8910;DHT22;4490;49.072;8.804;2024-02-15T12:29:00;18.00;80.80
8910;DHT22;4490;49.072;8.804;2024-02-15T12:31:27;18.10;81.40
8910;DHT22;4490;49.072;8.804;2024-02-15T12:34:00;18.10;80.70
8910;DHT22;4490;49.072;8.804;2024-02-15T12:36:26;18.20;80.10
8910;DHT22;4490;49.072;8.804;2024-02-15T12:39:04;18.20;79.70
8910;DHT22;4490;49.072;8.804;2024-02-15T12:41:48;18.20;79.90
8910;DHT22;4490;49.072;8.804;2024-02-15T12:44:17;18.30;79.40
8910;DHT22;4490;49.072;8.804;2024-02-15T12:46:46;18.30;79.80
8910;DHT22;4490;49.072;8.804;2024-02-15T12:51:52;18.30;79.40
8910;DHT22;4490;49.072;8.804;2024-02-15T12:54:22;18.40;79.70
8910;DHT22;4490;49.072;8.804;2024-02-15T12:56:47;18.50;79.20
8910;DHT22;4490;49.072;8.804;2024-02-15T12:59:19;18.50;78.80
8910;DHT22;4490;49.072;8.804;2024-02-15T13:01:46;18.50;78.90
8910;DHT22;4490;49.072;8.804;2024-02-15T13:04:25;18.50;78.60
8910;DHT22;4490;49.072;8.804;2024-02-15T13:06:51;18.60;78.90
8910;DHT22;4490;49.072;8.804;2024-02-15T13:09:16;18.60;78.20
8910;DHT22;4490;49.072;8.804;2024-02-15T13:11:42;18.60;77.70
8910;DHT22;4490;49.072;8.804;2024-02-15T13:14:11;18.50;77.40
8910;DHT22;4490;49.072;8.804;2024-02-15T13:16:36;18.50;77.60
8910;DHT22;4490;49.072;8.804;2024-02-15T13:19:02;18.50;76.90
8910;DHT22;4490;49.072;8.804;2024-02-15T13:21:29;18.50;77.60
8910;DHT22;4490;49.072;8.804;2024-02-15T13:23:56;18.40;77.00
8910;DHT22;4490;49.072;8.804;2024-02-15T13:26:22;18.40;77.30
8910;DHT22;4490;49.072;8.804;2024-02-15T13:28:52;18.40;77.30
8910;DHT22;4490;49.072;8.804;2024-02-15T13:31:17;18.40;77.40
8910;DHT22;4490;49.072;8.804;2024-02-15T13:33:43;18.40;77.40
8910;DHT22;4490;49.072;8.804;2024-02-15T13:36:09;18.50;76.90
8910;DHT22;4490;49.072;8.804;2024-02-15T13:38:39;18.60;78.20
8910;DHT22;4490;49.072;8.804;2024-02-15T13:41:04;18.60;77.30
8910;DHT22;4490;49.072;8.804;2024-02-15T13:43:31;18.70;76.80
8910;DHT22;4490;49.072;8.804;2024-02-15T13:45:57;18.60;76.50
8910;DHT22;4490;49.072;8.804;2024-02-15T13:48:27;18.60;76.30
8910;DHT22;4490;49.072;8.804;2024-02-15T13:50:55;18.60;76.70
8910;DHT22;4490;49.072;8.804;2024-02-15T13:53:21;18.60;76.40
8910;DHT22;4490;49.072;8.804;2024-02-15T13:55:47;18.60;76.90
8910;DHT22;4490;49.072;8.804;2024-02-15T13:58:13;18.60;76.30
8910;DHT22;4490;49.072;8.804;2024-02-15T14:00:39;18.60;76.60
8910;DHT22;4490;49.072;8.804;2024-02-15T14:03:07;18.60;77.00
8910;DHT22;4490;49.072;8.804;2024-02-15T14:05:35;18.50;77.00
8910;DHT22;4490;49.072;8.804;2024-02-15T14:08:05;18.50;76.40
8910;DHT22;4490;49.072;8.804;2024-02-15T14:10:32;18.50;77.10
8910;DHT22;4490;49.072;8.804;2024-02-15T14:13:00;18.50;77.50
8910;DHT22;4490;49.072;8.804;2024-02-15T14:15:29;18.50;77.40
8910;DHT22;4490;49.072;8.804;2024-02-15T14:17:55;18.40;77.30
8910;DHT22;4490;49.072;8.804;2024-02-15T14:20:22;18.40;77.40
8910;DHT22;4490;49.072;8.804;2024-02-15T14:22:50;18.50;77.10
8910;DHT22;4490;49.072;8.804;2024-02-15T14:25:21;18.50;76.80
8910;DHT22;4490;49.072;8.804;2024-02-15T14:27:47;18.50;77.10
8910;DHT22;4490;49.072;8.804;2024-02-15T14:30:13;18.50;75.30
8910;DHT22;4490;49.072;8.804;2024-02-15T14:32:58;18.50;76.00
8910;DHT22;4490;49.072;8.804;2024-02-15T14:35:32;18.50;76.30
8910;DHT22;4490;49.072;8.804;2024-02-15T14:38:02;18.50;75.90
8910;DHT22;4490;49.072;8.804;2024-02-15T14:40:32;18.50;76.30
8910;DHT22;4490;49.072;8.804;2024-02-15T14:42:58;18.50;76.50
8910;DHT22;4490;49.072;8.804;2024-02-15T14:45:25;18.50;76.70
8910;DHT22;4490;49.072;8.804;2024-02-15T14:47:50;18.50;77.10
8910;DHT22;4490;49.072;8.804;2024-02-15T14:50:16;18.50;76.20
8910;DHT22;4490;49.072;8.804;2024-02-15T14:52:41;18.50;76.00
8910;DHT22;4490;49.072;8.804;2024-02-15T14:55:08;18.50;75.80
8910;DHT22;4490;49.072;8.804;2024-02-15T14:57:34;18.40;75.00
8910;DHT22;4490;49.072;8.804;2024-02-15T15:00:01;18.40;74.90
8910;DHT22;4490;49.072;8.804;2024-02-15T15:02:29;18.40;75.10
8910;DHT22;4490;49.072;8.804;2024-02-15T15:04:56;18.40;75.50
8910;DHT22;4490;49.072;8.804;2024-02-15T15:07:40;18.40;75.40
8910;DHT22;4490;49.072;8.804;2024-02-15T15:10:24;18.40;75.80
8910;DHT22;4490;49.072;8.804;2024-02-15T15:13:08;18.30;76.20
8910;DHT22;4490;49.072;8.804;2024-02-15T15:15:35;18.30;76.10
8910;DHT22;4490;49.072;8.804;2024-02-15T15:18:03;18.20;75.30
8910;DHT22;4490;49.072;8.804;2024-02-15T15:20:30;18.20;75.30
8910;DHT22;4490;49.072;8.804;2024-02-15T15:22:58;18.20;75.20
8910;DHT22;4490;49.072;8.804;2024-02-15T15:25:25;18.20;75.10
8910;DHT22;4490;49.072;8.804;2024-02-15T15:27:53;18.10;75.00
8910;DHT22;4490;49.072;8.804;2024-02-15T15:30:19;18.10;75.10
8910;DHT22;4490;49.072;8.804;2024-02-15T15:32:46;18.10;75.50
8910;DHT22;4490;49.072;8.804;2024-02-15T15:35:12;18.00;75.60
8910;DHT22;4490;49.072;8.804;2024-02-15T15:37:39;18.10;76.00
8910;DHT22;4490;49.072;8.804;2024-02-15T15:40:05;18.10;76.40
8910;DHT22;4490;49.072;8.804;2024-02-15T15:42:35;18.00;76.40
8910;DHT22;4490;49.072;8.804;2024-02-15T15:45:01;18.00;76.40
8910;DHT22;4490;49.072;8.804;2024-02-15T15:47:27;17.90;76.50
8910;DHT22;4490;49.072;8.804;2024-02-15T15:49:52;17.90;76.60
8910;DHT22;4490;49.072;8.804;2024-02-15T15:52:24;17.80;76.60
8910;DHT22;4490;49.072;8.804;2024-02-15T15:54:49;17.80;76.80
8910;DHT22;4490;49.072;8.804;2024-02-15T15:57:15;17.70;77.20
8910;DHT22;4490;49.072;8.804;2024-02-15T15:59:41;17.70;77.60
8910;DHT22;4490;49.072;8.804;2024-02-15T16:02:06;17.60;77.80
8910;DHT22;4490;49.072;8.804;2024-02-15T16:04:32;17.50;77.90
8910;DHT22;4490;49.072;8.804;2024-02-15T16:06:58;17.40;78.00
8910;DHT22;4490;49.072;8.804;2024-02-15T16:09:24;17.40;78.10
8910;DHT22;4490;49.072;8.804;2024-02-15T16:11:50;17.30;78.20
8910;DHT22;4490;49.072;8.804;2024-02-15T16:14:18;17.30;78.40
8910;DHT22;4490;49.072;8.804;2024-02-15T16:16:44;17.20;78.50
8910;DHT22;4490;49.072;8.804;2024-02-15T16:19:10;17.10;78.60
8910;DHT22;4490;49.072;8.804;2024-02-15T16:21:36;17.10;78.80